Joffre, Pennsylvania
Current Conditions -  °F | °C
As of 6:51 PM on Wednesday 22 Oct 2014 (Local Time) from KPIT Reporting Station
Overcast Overcast  
Wind Chill: 42°   Ceiling: 1900
Heat Index: 48°   Visibility: 10mi
Dew Point: 41°   Wind: 14mph
Humidity: 77%   Direction: 350°N
Pressure: 30.18"   Gusts: NA
Location:  40.38°N, 80.36°W
Report Text: KPIT 222251Z 35012KT 10SM OVC019 09/05 A3018 RMK AO2 SLP231 T00890050
Loading
Personal Weather Stations






























Interactive Weather Map
Tropical Storm Tracking
New forecast layout! Learn more

10-Day Weather Forecast

Advertisements
Track Severe Weather on mobile